Aviation Digital Data Service (ADDS)

Output produced by METARs form (0323 UTC 21 September 2017)
found at http://www.aviationweather.gov/adds/metars/
 
ZMUB 210300Z 31007MPS 9999 -SNRA FEW020 SCT027 SCT030 03/01 Q1003 R14140395 TEMPO 3000 SNRA BLSN RMK QFE646.2 85 ESE CM
TAF ZMUB 202240Z 2100/2206 34008MPS 6000 -RA FEW027CB BKN030 TX03/2107Z TNM03/2123Z 
     TEMPO 2100/2105 4000 -RASN BLSN FEW020 FEW027CB BKN030 
     BECMG 2104/2106 34009MPS 
     BECMG 2109/2111 31006MPS 9999 NSW FEW030CB SCT033 
     BECMG 2113/2115 VRB02MPS